createdAt,value
2022-10-13T00:01:11.806Z,97172.38
2022-10-13T00:03:40.459Z,97171.09
2022-10-13T00:06:10.705Z,97177.00
2022-10-13T00:08:39.270Z,97172.22
2022-10-13T00:11:13.121Z,97175.34
2022-10-13T00:13:41.956Z,97170.38
2022-10-13T00:16:11.121Z,97174.59
2022-10-13T00:18:39.793Z,97167.28
2022-10-13T00:21:09.873Z,97165.47
2022-10-13T00:23:38.363Z,97163.75
2022-10-13T00:26:08.714Z,97161.00
2022-10-13T00:28:39.069Z,97160.19
2022-10-13T00:31:17.060Z,97163.75
2022-10-13T00:33:45.028Z,97155.97
2022-10-13T00:36:14.183Z,97157.72
2022-10-13T00:38:42.446Z,97159.78
2022-10-13T00:41:10.852Z,97156.41
2022-10-13T00:44:00.087Z,97154.00
2022-10-13T00:46:31.009Z,97147.22
2022-10-13T00:49:01.892Z,97150.72
2022-10-13T00:51:34.235Z,97153.69
2022-10-13T00:54:04.527Z,97165.25
2022-10-13T00:56:32.952Z,97158.72
2022-10-13T00:59:04.447Z,97159.78
2022-10-13T01:01:33.023Z,97161.91
2022-10-13T01:04:01.158Z,97162.13
2022-10-13T01:06:29.163Z,97150.09
2022-10-13T01:08:57.018Z,97145.97
2022-10-13T01:11:42.176Z,97148.81
2022-10-13T01:14:18.916Z,97156.06
2022-10-13T01:16:56.371Z,97154.56
2022-10-13T01:19:42.235Z,97150.53
2022-10-13T01:22:22.264Z,97147.28
2022-10-13T01:25:03.967Z,97156.16
2022-10-13T01:28:00.284Z,97151.44
2022-10-13T01:30:32.864Z,97140.66
2022-10-13T01:33:18.222Z,97141.81
2022-10-13T01:35:58.321Z,97140.03
2022-10-13T01:38:34.675Z,97139.19
2022-10-13T01:41:11.020Z,97135.56
2022-10-13T01:43:44.659Z,97145.06
2022-10-13T01:46:16.548Z,97133.66
2022-10-13T01:48:46.047Z,97127.09
2022-10-13T01:51:18.487Z,97132.28
2022-10-13T01:53:48.513Z,97124.34
2022-10-13T01:56:16.703Z,97124.97
2022-10-13T01:58:46.284Z,97116.50
2022-10-13T02:01:32.758Z,97118.78
2022-10-13T02:04:11.634Z,97117.28
2022-10-13T02:06:44.084Z,97122.44
2022-10-13T02:09:18.593Z,97120.31
2022-10-13T02:11:53.488Z,97119.38
2022-10-13T02:14:26.359Z,97121.69
2022-10-13T02:16:58.590Z,97117.72
2022-10-13T02:19:28.128Z,97128.09
2022-10-13T02:21:58.868Z,97118.13
2022-10-13T02:24:26.744Z,97123.19
2022-10-13T02:26:55.149Z,97120.31
2022-10-13T02:29:23.283Z,97120.94
2022-10-13T02:31:51.295Z,97123.56
2022-10-13T02:34:20.500Z,97115.41
2022-10-13T02:36:48.636Z,97114.22
2022-10-13T02:39:17.729Z,97111.22
2022-10-13T02:41:45.655Z,97112.94
2022-10-13T02:44:13.683Z,97123.19
2022-10-13T02:46:44.590Z,97116.91
2022-10-13T02:49:12.496Z,97122.09
2022-10-13T02:51:41.804Z,97112.09
2022-10-13T02:54:09.823Z,97118.88
2022-10-13T02:56:37.687Z,97114.41
2022-10-13T02:59:05.703Z,97113.47
2022-10-13T03:01:33.749Z,97108.88
2022-10-13T03:04:01.688Z,97115.75
2022-10-13T03:06:29.648Z,97108.53
2022-10-13T03:08:59.290Z,97105.03
2022-10-13T03:11:27.282Z,97106.59
2022-10-13T03:13:55.262Z,97097.72
2022-10-13T03:16:23.388Z,97103.75
2022-10-13T03:18:51.229Z,97099.28
2022-10-13T03:21:19.135Z,97093.75
2022-10-13T03:23:47.039Z,97096.28
2022-10-13T03:26:16.780Z,97085.69
2022-10-13T03:28:44.803Z,97082.91
2022-10-13T03:31:13.764Z,97089.91
2022-10-13T03:33:41.820Z,97083.78
2022-10-13T03:36:09.806Z,97076.44
2022-10-13T03:38:39.028Z,97081.72
2022-10-13T03:41:08.362Z,97085.22
2022-10-13T03:43:37.626Z,97082.44
2022-10-13T03:46:06.812Z,97081.63
2022-10-13T03:48:36.096Z,97088.59
2022-10-13T03:51:06.595Z,97086.91
2022-10-13T03:53:34.567Z,97090.41
2022-10-13T03:56:03.221Z,97092.22
2022-10-13T03:58:35.240Z,97096.53
2022-10-13T04:01:06.109Z,97096.53
2022-10-13T04:03:35.007Z,97099.91
2022-10-13T04:06:03.532Z,97094.72
2022-10-13T04:08:31.782Z,97099.19
2022-10-13T04:11:00.639Z,97092.44
2022-10-13T04:13:28.561Z,97089.81
2022-10-13T04:15:56.898Z,97080.16
2022-10-13T04:18:26.157Z,97076.78
2022-10-13T04:20:54.034Z,97084.00
2022-10-13T04:23:21.915Z,97079.69
2022-10-13T04:25:49.939Z,97087.50
2022-10-13T04:28:18.196Z,97096.50
2022-10-13T04:30:49.452Z,97103.41
2022-10-13T04:33:17.825Z,97098.09
2022-10-13T04:35:47.072Z,97094.59
2022-10-13T04:38:15.007Z,97106.16
2022-10-13T04:40:42.868Z,97094.00
2022-10-13T04:43:10.756Z,97089.16
2022-10-13T04:45:38.774Z,97091.69
2022-10-13T04:48:06.907Z,97082.78
2022-10-13T04:50:34.814Z,97086.28
2022-10-13T04:53:04.611Z,97082.19
2022-10-13T04:55:32.526Z,97079.53
2022-10-13T04:58:00.404Z,97078.91
2022-10-13T05:00:28.331Z,97066.75
2022-10-13T05:02:56.267Z,97067.59
2022-10-13T05:05:24.100Z,97071.09
2022-10-13T05:07:52.106Z,97069.41
2022-10-13T05:10:21.390Z,97080.00
2022-10-13T05:12:49.390Z,97090.94
2022-10-13T05:15:17.532Z,97098.03
2022-10-13T05:17:45.533Z,97092.34
2022-10-13T05:20:13.690Z,97096.72
2022-10-13T05:22:41.598Z,97095.97
2022-10-13T05:25:09.665Z,97087.91
2022-10-13T05:27:38.915Z,97085.25
2022-10-13T05:30:11.499Z,97090.69
2022-10-13T05:32:39.425Z,97082.00
2022-10-13T05:35:08.016Z,97090.19
2022-10-13T05:37:35.902Z,97086.34
2022-10-13T05:40:03.904Z,97081.75
2022-10-13T05:42:31.901Z,97096.81
2022-10-13T05:45:01.141Z,97089.84
2022-10-13T05:47:29.107Z,97090.88
2022-10-13T05:49:57.244Z,97086.56
2022-10-13T05:52:27.044Z,97085.50
2022-10-13T05:54:59.260Z,97082.94
2022-10-13T05:57:32.298Z,97077.56
2022-10-13T06:00:05.253Z,97080.31
2022-10-13T06:02:45.392Z,97064.56
2022-10-13T06:05:17.475Z,97072.16
2022-10-13T06:07:47.094Z,97065.88
2022-10-13T06:10:15.425Z,97068.53
2022-10-13T06:12:43.423Z,97056.03
2022-10-13T06:15:12.999Z,97066.63
2022-10-13T06:17:41.025Z,97070.94
2022-10-13T06:20:10.653Z,97064.69
2022-10-13T06:22:38.934Z,97070.00
2022-10-13T06:25:08.381Z,97075.03
2022-10-13T06:27:36.311Z,97070.47
2022-10-13T06:30:04.411Z,97072.28
2022-10-13T06:32:33.649Z,97076.50
2022-10-13T06:35:01.754Z,97068.47
2022-10-13T06:37:29.775Z,97072.06
2022-10-13T06:39:57.674Z,97069.16
2022-10-13T06:42:25.756Z,97056.06
2022-10-13T06:45:10.349Z,97066.16
2022-10-13T06:47:42.618Z,97058.13
2022-10-13T06:50:11.002Z,97058.94
2022-10-13T06:52:39.252Z,97054.38
2022-10-13T06:55:07.523Z,97055.22
2022-10-13T06:57:35.878Z,97060.31
2022-10-13T07:00:08.185Z,97059.22
2022-10-13T07:02:36.446Z,97051.03
2022-10-13T07:05:06.304Z,97052.72
2022-10-13T07:07:34.256Z,97065.47
2022-10-13T07:10:02.178Z,97072.59
2022-10-13T07:12:30.087Z,97071.59
2022-10-13T07:14:57.969Z,97069.69
2022-10-13T07:17:25.936Z,97075.59
2022-10-13T07:19:57.788Z,97064.19
2022-10-13T07:22:27.826Z,97061.13
2022-10-13T07:24:55.863Z,97058.38
2022-10-13T07:27:25.373Z,97060.78
2022-10-13T07:29:53.438Z,97071.38
2022-10-13T07:32:21.430Z,97064.06
2022-10-13T07:34:52.490Z,97061.28
2022-10-13T07:37:20.582Z,97064.66
2022-10-13T07:39:50.188Z,97072.97
2022-10-13T07:42:18.198Z,97070.91
2022-10-13T07:44:46.059Z,97071.38
2022-10-13T07:47:14.016Z,97070.31
2022-10-13T07:49:43.233Z,97064.06
2022-10-13T07:52:11.161Z,97055.84
2022-10-13T07:54:39.023Z,97054.81
2022-10-13T07:57:09.084Z,97043.72
2022-10-13T07:59:37.032Z,97047.94
2022-10-13T08:02:05.223Z,97045.28
2022-10-13T08:04:33.764Z,97040.47
2022-10-13T08:07:01.883Z,97035.41
2022-10-13T08:09:29.803Z,97035.25
2022-10-13T08:12:00.932Z,97034.16
2022-10-13T08:14:31.569Z,97033.94
2022-10-13T08:16:59.663Z,97033.44
2022-10-13T08:19:28.429Z,97038.63
2022-10-13T08:21:59.193Z,97030.28
2022-10-13T08:24:28.768Z,97031.00
2022-10-13T08:26:56.675Z,97029.41
2022-10-13T08:29:24.816Z,97027.09
2022-10-13T08:31:55.405Z,97027.56
2022-10-13T08:34:24.217Z,97028.72
2022-10-13T08:36:53.542Z,97027.13
2022-10-13T08:39:22.717Z,97016.25
2022-10-13T08:41:51.161Z,97010.56
2022-10-13T08:45:02.636Z,97014.66
2022-10-13T08:47:21.703Z,97015.00
2022-10-13T08:49:49.876Z,97012.94
2022-10-13T08:52:20.970Z,97015.44
2022-10-13T08:54:50.522Z,97014.09
2022-10-13T08:57:19.493Z,97016.22
2022-10-13T08:59:48.111Z,97006.44
2022-10-13T09:02:24.539Z,97012.22
2022-10-13T09:04:54.577Z,97014.88
2022-10-13T09:07:25.969Z,97018.94
2022-10-13T09:09:55.644Z,97023.84
2022-10-13T09:12:26.262Z,97023.63
2022-10-13T09:15:05.139Z,97018.63
2022-10-13T09:17:35.487Z,97015.84
2022-10-13T09:20:07.192Z,97018.97
2022-10-13T09:22:36.664Z,97014.47
2022-10-13T09:25:18.068Z,97008.34
2022-10-13T09:27:48.804Z,97015.78
2022-10-13T09:30:28.173Z,97017.59
2022-10-13T09:33:23.920Z,97022.66
2022-10-13T09:36:12.216Z,97015.25
2022-10-13T09:38:41.661Z,97023.63
2022-10-13T09:41:17.134Z,97017.22
2022-10-13T09:43:59.941Z,97019.59
2022-10-13T09:46:32.481Z,97021.25
2022-10-13T09:49:05.196Z,97014.84
2022-10-13T09:51:39.560Z,97015.16
2022-10-13T09:54:28.268Z,97014.22
2022-10-13T09:57:00.669Z,97010.88
2022-10-13T09:59:34.301Z,97007.69
2022-10-13T10:02:05.000Z,97008.97
2022-10-13T10:04:37.874Z,97009.66
2022-10-13T10:07:12.950Z,97007.97
2022-10-13T10:09:46.008Z,97014.41
2022-10-13T10:12:20.292Z,97009.94
2022-10-13T10:14:50.511Z,97008.13
2022-10-13T10:17:24.612Z,97009.94
2022-10-13T10:20:16.813Z,97008.97
2022-10-13T10:22:53.317Z,97012.44
2022-10-13T10:25:33.091Z,97013.28
2022-10-13T10:28:24.919Z,97007.97
2022-10-13T10:30:58.691Z,97011.50
2022-10-13T10:33:36.561Z,97005.78
2022-10-13T10:36:16.761Z,96999.59
2022-10-13T10:38:49.301Z,96997.25
2022-10-13T10:41:31.360Z,96990.41
2022-10-13T10:44:03.764Z,96991.53
2022-10-13T10:46:35.636Z,96985.69
2022-10-13T10:49:12.958Z,96984.69
2022-10-13T10:51:43.214Z,96977.31
2022-10-13T10:54:24.404Z,96971.28
2022-10-13T10:56:56.880Z,96965.97
2022-10-13T10:59:40.834Z,96969.75
2022-10-13T11:02:26.073Z,96958.56
2022-10-13T11:04:55.344Z,96957.31
2022-10-13T11:08:01.674Z,96963.06
2022-10-13T11:10:30.596Z,96952.13
2022-10-13T11:13:18.517Z,96949.16
2022-10-13T11:15:47.528Z,96945.56
2022-10-13T11:19:07.049Z,96950.47
2022-10-13T11:22:24.206Z,96944.72
2022-10-13T11:25:02.465Z,96936.88
2022-10-13T11:27:44.212Z,96937.28
2022-10-13T11:30:47.197Z,96930.69
2022-10-13T11:33:35.175Z,96933.50
2022-10-13T11:36:40.413Z,96926.88
2022-10-13T11:39:55.394Z,96926.88
2022-10-13T11:42:49.005Z,96919.59
2022-10-13T11:45:30.785Z,96912.00
2022-10-13T11:48:32.985Z,96912.00
2022-10-13T11:51:15.517Z,96914.53
2022-10-13T11:53:54.390Z,96903.31
2022-10-13T11:56:24.596Z,96897.03
2022-10-13T11:58:54.094Z,96902.06
2022-10-13T12:01:22.018Z,96883.81
2022-10-13T12:03:49.947Z,96887.72
2022-10-13T12:06:33.660Z,96883.94
2022-10-13T12:09:08.538Z,96873.81
2022-10-13T12:11:38.880Z,96876.91
2022-10-13T12:14:19.551Z,96861.44
2022-10-13T12:19:29.900Z,96858.66
2022-10-13T12:21:59.544Z,96862.13
2022-10-13T12:24:30.424Z,96855.28
2022-10-13T12:26:59.335Z,96848.94
2022-10-13T12:29:36.334Z,96837.72
2022-10-13T12:32:18.941Z,96828.16
2022-10-13T12:34:46.847Z,96823.06
2022-10-13T12:37:23.047Z,96824.28
2022-10-13T12:39:51.762Z,96822.00
2022-10-13T12:42:30.341Z,96819.75
2022-10-13T12:45:01.524Z,96821.97
2022-10-13T12:47:48.806Z,96819.16
2022-10-13T12:50:38.512Z,96811.53
2022-10-13T12:53:19.398Z,96813.91
2022-10-13T12:55:55.256Z,96824.41
2022-10-13T12:58:26.987Z,96821.47
2022-10-13T13:01:27.042Z,96825.78
2022-10-13T13:03:58.134Z,96828.78
2022-10-13T13:06:35.264Z,96823.13
2022-10-13T13:09:22.662Z,96823.50
2022-10-13T13:12:03.952Z,96817.47
2022-10-13T13:14:37.854Z,96817.78
2022-10-13T13:17:12.241Z,96810.09
2022-10-13T13:19:41.442Z,96810.81
2022-10-13T13:22:11.563Z,96811.63
2022-10-13T13:24:40.606Z,96818.78
2022-10-13T13:27:20.083Z,96815.72
2022-10-13T13:29:48.483Z,96819.38
2022-10-13T13:32:20.536Z,96823.34
2022-10-13T13:34:48.873Z,96824.19
2022-10-13T13:37:25.080Z,96819.16
2022-10-13T13:39:53.204Z,96822.78
2022-10-13T13:42:21.174Z,96823.75
2022-10-13T13:44:49.936Z,96824.34
2022-10-13T13:47:21.794Z,96824.19
2022-10-13T13:49:51.144Z,96809.88
2022-10-13T13:52:19.458Z,96808.22
2022-10-13T13:54:47.440Z,96804.69
2022-10-13T13:57:16.345Z,96808.22
2022-10-13T13:59:44.663Z,96802.88
2022-10-13T14:02:15.741Z,96795.84
2022-10-13T14:04:45.613Z,96804.53
2022-10-13T14:07:14.274Z,96800.34
2022-10-13T14:09:42.123Z,96796.13
2022-10-13T14:12:11.527Z,96796.97
2022-10-13T14:14:39.534Z,96790.09
2022-10-13T14:17:10.556Z,96789.28
2022-10-13T14:19:38.439Z,96791.94
2022-10-13T14:22:09.592Z,96792.22
2022-10-13T14:24:37.564Z,96794.88
2022-10-13T14:27:05.712Z,96798.56
2022-10-13T14:29:33.515Z,96793.53
2022-10-13T14:32:01.519Z,96801.53
2022-10-13T14:34:29.372Z,96808.00
2022-10-13T14:36:57.286Z,96815.13
2022-10-13T14:39:26.843Z,96808.72
2022-10-13T14:41:54.744Z,96813.69
2022-10-13T14:44:22.592Z,96807.97
2022-10-13T14:46:50.491Z,96811.22
2022-10-13T14:49:18.296Z,96810.44
2022-10-13T14:51:49.100Z,96808.91
2022-10-13T14:54:17.296Z,96816.34
2022-10-13T14:56:46.561Z,96814.53
2022-10-13T14:59:14.507Z,96809.22
2022-10-13T15:01:43.942Z,96813.28
2022-10-13T15:04:12.162Z,96818.91
2022-10-13T15:06:40.248Z,96814.97
2022-10-13T15:11:41.941Z,96815.25
2022-10-13T15:14:11.398Z,96806.19
2022-10-13T15:16:39.308Z,96808.84
2022-10-13T15:19:08.071Z,96805.66
2022-10-13T15:21:35.961Z,96804.97
2022-10-13T15:24:04.471Z,96803.56
2022-10-13T15:26:32.599Z,96803.03
2022-10-13T15:29:00.686Z,96804.13
2022-10-13T15:31:30.958Z,96803.31
2022-10-13T15:33:58.857Z,96803.69
2022-10-13T15:36:26.745Z,96813.91
2022-10-13T15:38:54.590Z,96809.31
2022-10-13T15:41:23.665Z,96814.56
2022-10-13T15:43:52.323Z,96814.69
2022-10-13T15:46:24.256Z,96799.84
2022-10-13T15:48:55.495Z,96803.06
2022-10-13T15:51:26.890Z,96808.56
2022-10-13T15:53:55.180Z,96805.66
2022-10-13T15:56:23.346Z,96811.78
2022-10-13T15:58:51.266Z,96814.88
2022-10-13T16:01:19.249Z,96812.53
2022-10-13T16:06:50.678Z,96817.94
2022-10-13T16:09:18.659Z,96815.41
2022-10-13T16:11:46.561Z,96812.34
2022-10-13T16:14:14.550Z,96817.97
2022-10-13T16:16:42.461Z,96819.63
2022-10-13T16:19:10.409Z,96819.22
2022-10-13T16:21:38.302Z,96826.50
2022-10-13T16:24:09.073Z,96826.69
2022-10-13T16:26:37.010Z,96829.59
2022-10-13T16:29:04.984Z,96834.38
2022-10-13T16:31:32.877Z,96823.03
2022-10-13T16:34:00.747Z,96811.56
2022-10-13T16:36:28.723Z,96820.50
2022-10-13T16:38:56.946Z,96818.00
2022-10-13T16:41:26.234Z,96810.47
2022-10-13T16:43:54.152Z,96819.41
2022-10-13T16:46:22.229Z,96803.44
2022-10-13T16:48:50.287Z,96809.88
2022-10-13T16:51:20.284Z,96823.59
2022-10-13T16:53:49.534Z,96822.63
2022-10-13T16:56:22.030Z,96808.63
2022-10-13T16:58:53.678Z,96815.63
2022-10-13T17:01:22.695Z,96818.72
2022-10-13T17:03:52.663Z,96815.50
2022-10-13T17:06:22.657Z,96815.63
2022-10-13T17:08:55.958Z,96816.75
2022-10-13T17:11:26.497Z,96809.78
2022-10-13T17:13:57.466Z,96810.59
2022-10-13T17:16:26.975Z,96808.22
2022-10-13T17:18:55.065Z,96816.19
2022-10-13T17:21:25.290Z,96816.47
2022-10-13T17:23:55.344Z,96823.75
2022-10-13T17:26:23.569Z,96820.25
2022-10-13T17:28:51.519Z,96828.34
2022-10-13T17:31:22.917Z,96818.00
2022-10-13T17:33:51.600Z,96813.81
2022-10-13T17:36:21.868Z,96814.66
2022-10-13T17:38:50.759Z,96812.16
2022-10-13T17:41:19.844Z,96826.41
2022-10-13T17:43:51.446Z,96824.88
2022-10-13T17:46:39.283Z,96825.69
2022-10-13T17:49:10.334Z,96825.97
2022-10-13T17:51:38.802Z,96832.97
2022-10-13T17:54:11.585Z,96832.13
2022-10-13T17:56:40.989Z,96842.06
2022-10-13T17:59:09.895Z,96837.84
2022-10-13T18:01:41.841Z,96830.03
2022-10-13T18:04:12.647Z,96840.66
2022-10-13T18:06:43.909Z,96831.00
2022-10-13T18:09:14.380Z,96829.19
2022-10-13T18:11:49.426Z,96829.06
2022-10-13T18:14:18.440Z,96835.63
2022-10-13T18:16:48.821Z,96823.44
2022-10-13T18:19:16.789Z,96827.94
2022-10-13T18:21:44.773Z,96828.91
2022-10-13T18:24:12.817Z,96829.88
2022-10-13T18:26:40.860Z,96825.56
2022-10-13T18:29:11.936Z,96829.16
2022-10-13T18:31:41.227Z,96830.16
2022-10-13T18:34:15.192Z,96826.50
2022-10-13T18:36:46.544Z,96829.56
2022-10-13T18:39:16.725Z,96832.94
2022-10-13T18:41:49.114Z,96829.75
2022-10-13T18:44:18.617Z,96830.69
2022-10-13T18:46:47.079Z,96830.69
2022-10-13T18:49:18.471Z,96829.03
2022-10-13T18:51:46.668Z,96833.50
2022-10-13T18:54:14.600Z,96829.28
2022-10-13T18:56:42.819Z,96820.63
2022-10-13T18:59:12.311Z,96818.81
2022-10-13T19:01:41.157Z,96819.78
2022-10-13T19:04:12.611Z,96824.66
2022-10-13T19:06:42.784Z,96822.72
2022-10-13T19:09:13.418Z,96818.63
2022-10-13T19:11:41.770Z,96818.78
2022-10-13T19:14:13.956Z,96816.53
2022-10-13T19:16:43.997Z,96822.81
2022-10-13T19:19:16.088Z,96821.28
2022-10-13T19:21:45.370Z,96828.41
2022-10-13T19:24:13.527Z,96822.09
2022-10-13T19:26:42.168Z,96819.59
2022-10-13T19:29:12.312Z,96815.13
2022-10-13T19:31:42.604Z,96818.75
2022-10-13T19:34:12.120Z,96814.38
2022-10-13T19:36:42.319Z,96823.34
2022-10-13T19:39:16.035Z,96834.81
2022-10-13T19:41:45.223Z,96825.13
2022-10-13T19:44:13.205Z,96830.84
2022-10-13T19:46:42.270Z,96824.88
2022-10-13T19:49:11.306Z,96833.94
2022-10-13T19:51:45.792Z,96839.94
2022-10-13T19:54:15.068Z,96842.75
2022-10-13T19:56:47.220Z,96842.88
2022-10-13T19:59:16.014Z,96840.22
2022-10-13T20:01:44.283Z,96838.53
2022-10-13T20:04:17.914Z,96835.44
2022-10-13T20:06:46.268Z,96836.28
2022-10-13T20:09:15.931Z,96833.88
2022-10-13T20:11:45.855Z,96840.31
2022-10-13T20:14:14.088Z,96840.69
2022-10-13T20:16:42.426Z,96841.81
2022-10-13T20:19:13.324Z,96843.63
2022-10-13T20:21:42.731Z,96842.66
2022-10-13T20:24:12.326Z,96852.13
2022-10-13T20:26:41.789Z,96855.88
2022-10-13T20:29:10.001Z,96854.22
2022-10-13T20:31:38.006Z,96852.38
2022-10-13T20:34:05.955Z,96847.34
2022-10-13T20:36:38.554Z,96845.09
2022-10-13T20:39:07.636Z,96849.97
2022-10-13T20:41:35.549Z,96843.94
2022-10-13T20:44:04.859Z,96848.66
2022-10-13T20:46:34.364Z,96856.06
2022-10-13T20:49:10.880Z,96861.75
2022-10-13T20:51:40.167Z,96857.53
2022-10-13T20:54:08.141Z,96855.00
2022-10-13T20:56:36.157Z,96854.69
2022-10-13T20:59:07.690Z,96847.13
2022-10-13T21:01:35.957Z,96846.56
2022-10-13T21:04:04.164Z,96846.66
2022-10-13T21:06:32.871Z,96846.09
2022-10-13T21:09:01.417Z,96842.03
2022-10-13T21:11:29.396Z,96843.84
2022-10-13T21:13:57.406Z,96842.28
2022-10-13T21:16:29.127Z,96847.25
2022-10-13T21:18:58.759Z,96849.19
2022-10-13T21:21:28.188Z,96846.41
2022-10-13T21:23:57.793Z,96850.88
2022-10-13T21:26:27.223Z,96855.59
2022-10-13T21:28:55.505Z,96858.25
2022-10-13T21:31:24.642Z,96857.38
2022-10-13T21:33:54.513Z,96856.56
2022-10-13T21:36:25.121Z,96855.97
2022-10-13T21:38:54.891Z,96853.31
2022-10-13T21:41:23.465Z,96853.44
2022-10-13T21:43:52.095Z,96853.56
2022-10-13T21:46:22.845Z,96857.91
2022-10-13T21:48:56.534Z,96855.66
2022-10-13T21:51:26.652Z,96855.66
2022-10-13T21:53:56.974Z,96851.19
2022-10-13T21:56:26.675Z,96852.28
2022-10-13T21:58:55.973Z,96856.59
2022-10-13T22:01:24.754Z,96854.66
2022-10-13T22:03:56.584Z,96857.47
2022-10-13T22:06:27.723Z,96851.28
2022-10-13T22:08:58.382Z,96854.94
2022-10-13T22:11:29.568Z,96854.22
2022-10-13T22:13:58.223Z,96855.75
2022-10-13T22:16:28.922Z,96856.34
2022-10-13T22:18:59.358Z,96862.63
2022-10-13T22:21:30.800Z,96859.13
2022-10-13T22:23:59.897Z,96861.66
2022-10-13T22:26:28.595Z,96865.25
2022-10-13T22:28:57.745Z,96864.16
2022-10-13T22:31:26.225Z,96859.00
2022-10-13T22:33:54.984Z,96853.56
2022-10-13T22:36:26.582Z,96850.06
2022-10-13T22:38:56.837Z,96847.44
2022-10-13T22:41:25.245Z,96851.78
2022-10-13T22:43:54.743Z,96847.31
2022-10-13T22:46:24.812Z,96856.09
2022-10-13T22:48:53.151Z,96853.31
2022-10-13T22:51:22.726Z,96859.19
2022-10-13T22:53:52.814Z,96855.84
2022-10-13T22:56:23.001Z,96853.91
2022-10-13T22:58:51.365Z,96860.31
2022-10-13T23:01:19.842Z,96861.84
2022-10-13T23:03:49.382Z,96853.06
2022-10-13T23:06:20.351Z,96852.22
2022-10-13T23:08:48.576Z,96849.44
2022-10-13T23:11:17.897Z,96848.88
2022-10-13T23:13:46.212Z,96845.00
2022-10-13T23:16:16.207Z,96842.34
2022-10-13T23:18:44.967Z,96848.75
2022-10-13T23:21:27.127Z,96850.53
2022-10-13T23:23:56.597Z,96850.69
2022-10-13T23:26:26.460Z,96844.53
2022-10-13T23:28:54.669Z,96844.78
2022-10-13T23:31:22.765Z,96841.91
2022-10-13T23:33:50.807Z,96838.53
2022-10-13T23:36:20.929Z,96836.09
2022-10-13T23:38:49.577Z,96836.25
2022-10-13T23:41:17.754Z,96834.56
2022-10-13T23:43:47.011Z,96832.75
2022-10-13T23:46:14.963Z,96832.06
2022-10-13T23:48:42.927Z,96830.34
2022-10-13T23:51:13.211Z,96825.66
2022-10-13T23:53:41.687Z,96834.72
2022-10-13T23:56:11.213Z,96826.03
2022-10-13T23:58:40.189Z,96827.84
